sensor_id;sensor_type;location;lat;lon;timestamp;P1;durP1;ratioP1;P2;durP2;ratioP2
52898;SDS011;38763;53.096;6.062;2023-07-20T00:01:46;4.97;;;1.65;;
52898;SDS011;38763;53.096;6.062;2023-07-20T00:04:13;3.17;;;1.35;;
52898;SDS011;38763;53.096;6.062;2023-07-20T00:06:39;2.75;;;1.50;;
52898;SDS011;38763;53.096;6.062;2023-07-20T00:09:08;3.80;;;1.48;;
52898;SDS011;38763;53.096;6.062;2023-07-20T00:11:35;4.00;;;1.90;;
52898;SDS011;38763;53.096;6.062;2023-07-20T00:14:02;3.90;;;1.85;;
52898;SDS011;38763;53.096;6.062;2023-07-20T00:16:29;2.88;;;1.70;;
52898;SDS011;38763;53.096;6.062;2023-07-20T00:18:54;5.32;;;1.60;;
52898;SDS011;38763;53.096;6.062;2023-07-20T00:21:20;2.88;;;1.48;;
52898;SDS011;38763;53.096;6.062;2023-07-20T00:23:46;3.13;;;1.83;;
52898;SDS011;38763;53.096;6.062;2023-07-20T00:26:11;3.55;;;1.50;;
52898;SDS011;38763;53.096;6.062;2023-07-20T00:28:37;3.50;;;1.63;;
52898;SDS011;38763;53.096;6.062;2023-07-20T00:31:02;2.53;;;1.65;;
52898;SDS011;38763;53.096;6.062;2023-07-20T00:33:29;4.53;;;1.60;;
52898;SDS011;38763;53.096;6.062;2023-07-20T00:35:55;2.55;;;1.58;;
52898;SDS011;38763;53.096;6.062;2023-07-20T00:38:20;3.53;;;1.85;;
52898;SDS011;38763;53.096;6.062;2023-07-20T00:40:46;2.55;;;1.50;;
52898;SDS011;38763;53.096;6.062;2023-07-20T00:43:13;3.05;;;1.52;;
52898;SDS011;38763;53.096;6.062;2023-07-20T00:45:38;4.63;;;1.60;;
52898;SDS011;38763;53.096;6.062;2023-07-20T00:48:04;3.25;;;1.60;;
52898;SDS011;38763;53.096;6.062;2023-07-20T00:50:31;3.92;;;1.70;;
52898;SDS011;38763;53.096;6.062;2023-07-20T00:52:58;3.03;;;1.60;;
52898;SDS011;38763;53.096;6.062;2023-07-20T00:55:24;3.28;;;1.60;;
52898;SDS011;38763;53.096;6.062;2023-07-20T00:57:51;2.40;;;1.60;;
52898;SDS011;38763;53.096;6.062;2023-07-20T01:00:17;3.60;;;1.70;;
52898;SDS011;38763;53.096;6.062;2023-07-20T01:02:44;3.10;;;1.77;;
52898;SDS011;38763;53.096;6.062;2023-07-20T01:05:10;6.72;;;2.10;;
52898;SDS011;38763;53.096;6.062;2023-07-20T01:07:59;4.28;;;2.00;;
52898;SDS011;38763;53.096;6.062;2023-07-20T01:10:36;2.67;;;1.60;;
52898;SDS011;38763;53.096;6.062;2023-07-20T01:13:06;3.17;;;1.73;;
52898;SDS011;38763;53.096;6.062;2023-07-20T01:15:34;5.30;;;2.05;;
52898;SDS011;38763;53.096;6.062;2023-07-20T01:18:00;4.75;;;1.92;;
52898;SDS011;38763;53.096;6.062;2023-07-20T01:20:31;4.22;;;1.90;;
52898;SDS011;38763;53.096;6.062;2023-07-20T01:31:34;4.82;;;2.20;;
52898;SDS011;38763;53.096;6.062;2023-07-20T01:34:01;5.47;;;2.50;;
52898;SDS011;38763;53.096;6.062;2023-07-20T01:36:30;4.10;;;2.35;;
52898;SDS011;38763;53.096;6.062;2023-07-20T01:38:59;7.82;;;2.60;;
52898;SDS011;38763;53.096;6.062;2023-07-20T01:41:25;6.07;;;2.42;;
52898;SDS011;38763;53.096;6.062;2023-07-20T01:43:51;5.60;;;2.50;;
52898;SDS011;38763;53.096;6.062;2023-07-20T01:46:16;9.02;;;2.70;;
52898;SDS011;38763;53.096;6.062;2023-07-20T01:48:42;5.10;;;2.40;;
52898;SDS011;38763;53.096;6.062;2023-07-20T01:51:08;5.47;;;2.78;;
52898;SDS011;38763;53.096;6.062;2023-07-20T01:53:33;4.47;;;2.83;;
52898;SDS011;38763;53.096;6.062;2023-07-20T01:55:59;5.07;;;2.95;;
52898;SDS011;38763;53.096;6.062;2023-07-20T01:58:25;4.57;;;2.60;;
52898;SDS011;38763;53.096;6.062;2023-07-20T02:00:50;5.55;;;2.78;;
52898;SDS011;38763;53.096;6.062;2023-07-20T02:03:16;4.57;;;2.60;;
52898;SDS011;38763;53.096;6.062;2023-07-20T02:05:42;5.22;;;2.65;;
52898;SDS011;38763;53.096;6.062;2023-07-20T02:08:08;4.93;;;3.13;;
52898;SDS011;38763;53.096;6.062;2023-07-20T02:10:34;5.10;;;2.70;;
52898;SDS011;38763;53.096;6.062;2023-07-20T02:13:01;5.43;;;3.00;;
52898;SDS011;38763;53.096;6.062;2023-07-20T02:15:26;5.25;;;2.58;;
52898;SDS011;38763;53.096;6.062;2023-07-20T02:17:53;6.20;;;2.85;;
52898;SDS011;38763;53.096;6.062;2023-07-20T02:20:19;3.85;;;2.58;;
52898;SDS011;38763;53.096;6.062;2023-07-20T02:22:45;4.95;;;3.10;;
52898;SDS011;38763;53.096;6.062;2023-07-20T02:25:11;4.43;;;2.50;;
52898;SDS011;38763;53.096;6.062;2023-07-20T02:27:37;5.63;;;2.75;;
52898;SDS011;38763;53.096;6.062;2023-07-20T02:30:04;4.93;;;2.78;;
52898;SDS011;38763;53.096;6.062;2023-07-20T02:32:30;5.50;;;2.85;;
52898;SDS011;38763;53.096;6.062;2023-07-20T02:34:56;5.00;;;3.03;;
52898;SDS011;38763;53.096;6.062;2023-07-20T02:37:23;5.93;;;2.80;;
52898;SDS011;38763;53.096;6.062;2023-07-20T02:39:49;4.65;;;2.70;;
52898;SDS011;38763;53.096;6.062;2023-07-20T02:42:15;9.10;;;2.63;;
52898;SDS011;38763;53.096;6.062;2023-07-20T02:44:40;4.72;;;2.90;;
52898;SDS011;38763;53.096;6.062;2023-07-20T02:47:06;5.05;;;3.10;;
52898;SDS011;38763;53.096;6.062;2023-07-20T02:49:32;6.28;;;3.00;;
52898;SDS011;38763;53.096;6.062;2023-07-20T02:51:57;4.55;;;2.72;;
52898;SDS011;38763;53.096;6.062;2023-07-20T02:54:23;4.95;;;3.00;;
52898;SDS011;38763;53.096;6.062;2023-07-20T02:56:49;5.47;;;3.45;;
52898;SDS011;38763;53.096;6.062;2023-07-20T02:59:14;6.75;;;3.25;;
52898;SDS011;38763;53.096;6.062;2023-07-20T03:01:40;5.68;;;2.92;;
52898;SDS011;38763;53.096;6.062;2023-07-20T03:04:07;6.53;;;3.30;;
52898;SDS011;38763;53.096;6.062;2023-07-20T03:06:35;5.72;;;3.15;;
52898;SDS011;38763;53.096;6.062;2023-07-20T03:09:01;6.50;;;3.13;;
52898;SDS011;38763;53.096;6.062;2023-07-20T03:11:27;4.57;;;3.22;;
52898;SDS011;38763;53.096;6.062;2023-07-20T03:13:53;5.28;;;3.13;;
52898;SDS011;38763;53.096;6.062;2023-07-20T03:16:19;6.45;;;3.15;;
52898;SDS011;38763;53.096;6.062;2023-07-20T03:18:45;7.20;;;3.47;;
52898;SDS011;38763;53.096;6.062;2023-07-20T03:21:11;5.35;;;3.63;;
52898;SDS011;38763;53.096;6.062;2023-07-20T03:23:38;4.68;;;3.10;;
52898;SDS011;38763;53.096;6.062;2023-07-20T03:26:04;8.07;;;3.00;;
52898;SDS011;38763;53.096;6.062;2023-07-20T03:28:29;6.05;;;3.10;;
52898;SDS011;38763;53.096;6.062;2023-07-20T03:30:55;5.35;;;3.35;;
52898;SDS011;38763;53.096;6.062;2023-07-20T03:33:25;5.20;;;3.35;;
52898;SDS011;38763;53.096;6.062;2023-07-20T03:35:52;5.18;;;3.03;;
52898;SDS011;38763;53.096;6.062;2023-07-20T03:38:19;5.13;;;3.20;;
52898;SDS011;38763;53.096;6.062;2023-07-20T03:40:58;7.10;;;3.30;;
52898;SDS011;38763;53.096;6.062;2023-07-20T03:43:25;5.35;;;3.38;;
52898;SDS011;38763;53.096;6.062;2023-07-20T03:45:52;5.85;;;3.60;;
52898;SDS011;38763;53.096;6.062;2023-07-20T03:48:18;6.28;;;3.20;;
52898;SDS011;38763;53.096;6.062;2023-07-20T03:50:46;5.18;;;3.40;;
52898;SDS011;38763;53.096;6.062;2023-07-20T03:53:13;7.03;;;3.50;;
52898;SDS011;38763;53.096;6.062;2023-07-20T03:55:41;8.90;;;3.75;;
52898;SDS011;38763;53.096;6.062;2023-07-20T03:58:11;6.18;;;3.63;;
52898;SDS011;38763;53.096;6.062;2023-07-20T04:00:37;6.82;;;3.63;;
52898;SDS011;38763;53.096;6.062;2023-07-20T04:03:02;5.88;;;3.70;;
52898;SDS011;38763;53.096;6.062;2023-07-20T04:05:28;5.55;;;3.70;;
52898;SDS011;38763;53.096;6.062;2023-07-20T04:07:55;6.80;;;4.38;;
52898;SDS011;38763;53.096;6.062;2023-07-20T04:10:20;5.32;;;3.75;;
52898;SDS011;38763;53.096;6.062;2023-07-20T04:12:46;5.50;;;3.83;;
52898;SDS011;38763;53.096;6.062;2023-07-20T04:15:12;6.28;;;3.38;;
52898;SDS011;38763;53.096;6.062;2023-07-20T04:17:39;5.60;;;3.90;;
52898;SDS011;38763;53.096;6.062;2023-07-20T04:20:06;6.60;;;3.95;;
52898;SDS011;38763;53.096;6.062;2023-07-20T04:22:32;5.57;;;3.75;;
52898;SDS011;38763;53.096;6.062;2023-07-20T04:24:58;6.97;;;3.58;;
52898;SDS011;38763;53.096;6.062;2023-07-20T04:27:23;7.68;;;3.80;;
52898;SDS011;38763;53.096;6.062;2023-07-20T04:29:49;6.68;;;3.50;;
52898;SDS011;38763;53.096;6.062;2023-07-20T04:32:15;4.93;;;3.08;;
52898;SDS011;38763;53.096;6.062;2023-07-20T04:34:41;5.47;;;3.70;;
52898;SDS011;38763;53.096;6.062;2023-07-20T04:37:07;6.38;;;4.03;;
52898;SDS011;38763;53.096;6.062;2023-07-20T04:39:33;7.05;;;3.47;;
52898;SDS011;38763;53.096;6.062;2023-07-20T04:41:58;6.20;;;3.65;;
52898;SDS011;38763;53.096;6.062;2023-07-20T04:44:24;7.30;;;3.90;;
52898;SDS011;38763;53.096;6.062;2023-07-20T04:46:49;6.32;;;3.90;;
52898;SDS011;38763;53.096;6.062;2023-07-20T04:49:15;7.65;;;3.55;;
52898;SDS011;38763;53.096;6.062;2023-07-20T04:51:41;6.95;;;3.78;;
52898;SDS011;38763;53.096;6.062;2023-07-20T04:54:06;7.57;;;3.92;;
52898;SDS011;38763;53.096;6.062;2023-07-20T04:56:32;6.75;;;3.72;;
52898;SDS011;38763;53.096;6.062;2023-07-20T04:58:58;9.23;;;3.60;;
52898;SDS011;38763;53.096;6.062;2023-07-20T05:01:24;6.60;;;4.00;;
52898;SDS011;38763;53.096;6.062;2023-07-20T05:03:49;5.38;;;3.53;;
52898;SDS011;38763;53.096;6.062;2023-07-20T05:06:15;5.47;;;3.70;;
52898;SDS011;38763;53.096;6.062;2023-07-20T05:08:41;5.72;;;3.58;;
52898;SDS011;38763;53.096;6.062;2023-07-20T05:11:06;6.93;;;3.42;;
52898;SDS011;38763;53.096;6.062;2023-07-20T05:13:33;7.88;;;3.90;;
52898;SDS011;38763;53.096;6.062;2023-07-20T05:15:58;6.35;;;3.30;;
52898;SDS011;38763;53.096;6.062;2023-07-20T05:18:24;7.10;;;3.92;;
52898;SDS011;38763;53.096;6.062;2023-07-20T05:20:50;5.57;;;3.65;;
52898;SDS011;38763;53.096;6.062;2023-07-20T05:23:19;8.57;;;3.60;;
52898;SDS011;38763;53.096;6.062;2023-07-20T05:25:45;6.25;;;3.88;;
52898;SDS011;38763;53.096;6.062;2023-07-20T05:28:11;7.38;;;3.65;;
52898;SDS011;38763;53.096;6.062;2023-07-20T05:30:36;5.72;;;4.03;;
52898;SDS011;38763;53.096;6.062;2023-07-20T05:33:02;9.88;;;3.60;;
52898;SDS011;38763;53.096;6.062;2023-07-20T05:35:28;5.63;;;3.50;;
52898;SDS011;38763;53.096;6.062;2023-07-20T05:37:54;7.13;;;3.80;;
52898;SDS011;38763;53.096;6.062;2023-07-20T05:40:20;9.10;;;3.45;;
52898;SDS011;38763;53.096;6.062;2023-07-20T05:42:46;7.28;;;4.03;;
52898;SDS011;38763;53.096;6.062;2023-07-20T05:45:17;7.25;;;3.80;;
52898;SDS011;38763;53.096;6.062;2023-07-20T05:47:43;5.47;;;3.03;;
52898;SDS011;38763;53.096;6.062;2023-07-20T05:50:09;5.18;;;3.10;;
52898;SDS011;38763;53.096;6.062;2023-07-20T05:52:35;5.72;;;3.13;;
52898;SDS011;38763;53.096;6.062;2023-07-20T05:55:01;6.75;;;3.08;;
52898;SDS011;38763;53.096;6.062;2023-07-20T05:57:27;6.75;;;2.80;;
52898;SDS011;38763;53.096;6.062;2023-07-20T05:59:52;7.18;;;2.88;;
52898;SDS011;38763;53.096;6.062;2023-07-20T06:02:18;7.47;;;3.00;;
52898;SDS011;38763;53.096;6.062;2023-07-20T06:04:44;4.43;;;2.40;;
52898;SDS011;38763;53.096;6.062;2023-07-20T06:07:10;13.48;;;3.13;;
52898;SDS011;38763;53.096;6.062;2023-07-20T06:09:35;5.75;;;2.35;;
52898;SDS011;38763;53.096;6.062;2023-07-20T06:12:01;6.47;;;2.30;;
52898;SDS011;38763;53.096;6.062;2023-07-20T06:14:27;6.80;;;2.70;;
52898;SDS011;38763;53.096;6.062;2023-07-20T06:16:52;6.18;;;2.20;;
52898;SDS011;38763;53.096;6.062;2023-07-20T06:19:18;5.60;;;2.25;;
52898;SDS011;38763;53.096;6.062;2023-07-20T06:21:44;6.35;;;2.20;;
52898;SDS011;38763;53.096;6.062;2023-07-20T06:24:09;4.75;;;2.30;;
52898;SDS011;38763;53.096;6.062;2023-07-20T06:26:35;5.78;;;2.00;;
52898;SDS011;38763;53.096;6.062;2023-07-20T06:29:07;7.22;;;2.10;;
52898;SDS011;38763;53.096;6.062;2023-07-20T06:31:34;4.10;;;1.52;;
52898;SDS011;38763;53.096;6.062;2023-07-20T06:34:00;4.22;;;1.52;;
52898;SDS011;38763;53.096;6.062;2023-07-20T06:36:26;5.50;;;1.40;;
52898;SDS011;38763;53.096;6.062;2023-07-20T06:38:52;4.55;;;1.40;;
52898;SDS011;38763;53.096;6.062;2023-07-20T06:41:18;4.65;;;1.40;;
52898;SDS011;38763;53.096;6.062;2023-07-20T06:43:44;5.18;;;1.70;;
52898;SDS011;38763;53.096;6.062;2023-07-20T06:46:10;5.22;;;1.48;;
52898;SDS011;38763;53.096;6.062;2023-07-20T06:48:36;3.78;;;1.48;;
52898;SDS011;38763;53.096;6.062;2023-07-20T06:51:01;4.05;;;1.50;;
52898;SDS011;38763;53.096;6.062;2023-07-20T06:53:28;2.92;;;1.58;;
52898;SDS011;38763;53.096;6.062;2023-07-20T06:55:54;5.22;;;1.88;;
52898;SDS011;38763;53.096;6.062;2023-07-20T06:58:22;3.42;;;1.50;;
52898;SDS011;38763;53.096;6.062;2023-07-20T07:00:48;5.10;;;1.10;;
52898;SDS011;38763;53.096;6.062;2023-07-20T07:03:14;3.88;;;1.10;;
52898;SDS011;38763;53.096;6.062;2023-07-20T07:05:40;17.42;;;1.30;;
52898;SDS011;38763;53.096;6.062;2023-07-20T07:08:05;4.50;;;1.20;;
52898;SDS011;38763;53.096;6.062;2023-07-20T07:10:31;5.70;;;1.30;;
52898;SDS011;38763;53.096;6.062;2023-07-20T07:12:58;3.60;;;1.20;;
52898;SDS011;38763;53.096;6.062;2023-07-20T07:15:23;4.38;;;1.30;;
52898;SDS011;38763;53.096;6.062;2023-07-20T07:17:49;4.68;;;1.10;;
52898;SDS011;38763;53.096;6.062;2023-07-20T07:20:15;2.80;;;1.27;;
52898;SDS011;38763;53.096;6.062;2023-07-20T07:22:41;4.63;;;1.33;;
52898;SDS011;38763;53.096;6.062;2023-07-20T07:25:09;3.85;;;1.20;;
52898;SDS011;38763;53.096;6.062;2023-07-20T07:27:35;3.30;;;1.00;;
52898;SDS011;38763;53.096;6.062;2023-07-20T07:30:01;3.90;;;1.25;;
52898;SDS011;38763;53.096;6.062;2023-07-20T07:32:27;3.38;;;1.13;;
52898;SDS011;38763;53.096;6.062;2023-07-20T07:34:53;5.05;;;1.45;;
52898;SDS011;38763;53.096;6.062;2023-07-20T07:37:19;6.30;;;1.70;;
52898;SDS011;38763;53.096;6.062;2023-07-20T07:39:45;4.13;;;1.60;;
52898;SDS011;38763;53.096;6.062;2023-07-20T07:42:11;6.50;;;2.28;;
52898;SDS011;38763;53.096;6.062;2023-07-20T07:44:37;3.53;;;1.50;;
52898;SDS011;38763;53.096;6.062;2023-07-20T07:47:03;5.88;;;2.03;;
52898;SDS011;38763;53.096;6.062;2023-07-20T07:49:29;4.72;;;1.75;;
52898;SDS011;38763;53.096;6.062;2023-07-20T07:51:54;4.18;;;1.70;;
52898;SDS011;38763;53.096;6.062;2023-07-20T07:54:20;4.85;;;1.80;;
52898;SDS011;38763;53.096;6.062;2023-07-20T07:56:45;3.65;;;1.40;;
52898;SDS011;38763;53.096;6.062;2023-07-20T07:59:11;4.35;;;1.45;;
52898;SDS011;38763;53.096;6.062;2023-07-20T08:01:37;2.97;;;1.50;;
52898;SDS011;38763;53.096;6.062;2023-07-20T08:04:02;7.13;;;1.50;;
52898;SDS011;38763;53.096;6.062;2023-07-20T08:06:28;5.72;;;1.40;;
52898;SDS011;38763;53.096;6.062;2023-07-20T08:08:54;3.15;;;1.40;;
52898;SDS011;38763;53.096;6.062;2023-07-20T08:11:20;4.10;;;1.30;;
52898;SDS011;38763;53.096;6.062;2023-07-20T08:13:46;4.18;;;1.38;;
52898;SDS011;38763;53.096;6.062;2023-07-20T08:16:11;3.35;;;1.40;;
52898;SDS011;38763;53.096;6.062;2023-07-20T08:18:37;2.67;;;1.20;;
52898;SDS011;38763;53.096;6.062;2023-07-20T08:21:03;5.35;;;1.38;;
52898;SDS011;38763;53.096;6.062;2023-07-20T08:23:28;4.57;;;1.55;;
52898;SDS011;38763;53.096;6.062;2023-07-20T08:25:54;3.28;;;1.40;;
52898;SDS011;38763;53.096;6.062;2023-07-20T08:28:20;5.25;;;1.60;;
52898;SDS011;38763;53.096;6.062;2023-07-20T08:30:47;3.17;;;1.50;;
52898;SDS011;38763;53.096;6.062;2023-07-20T08:33:13;4.20;;;1.42;;
52898;SDS011;38763;53.096;6.062;2023-07-20T08:35:40;2.63;;;1.30;;
52898;SDS011;38763;53.096;6.062;2023-07-20T08:38:06;5.57;;;1.50;;
52898;SDS011;38763;53.096;6.062;2023-07-20T08:40:33;3.63;;;1.67;;
52898;SDS011;38763;53.096;6.062;2023-07-20T08:43:03;3.80;;;1.83;;
52898;SDS011;38763;53.096;6.062;2023-07-20T08:45:29;3.85;;;1.55;;
52898;SDS011;38763;53.096;6.062;2023-07-20T08:47:58;5.38;;;1.70;;
52898;SDS011;38763;53.096;6.062;2023-07-20T08:50:26;5.35;;;1.60;;
52898;SDS011;38763;53.096;6.062;2023-07-20T08:52:56;6.43;;;2.00;;
52898;SDS011;38763;53.096;6.062;2023-07-20T08:55:23;3.90;;;1.40;;
52898;SDS011;38763;53.096;6.062;2023-07-20T08:57:51;3.42;;;1.50;;
52898;SDS011;38763;53.096;6.062;2023-07-20T09:00:19;7.05;;;1.83;;
52898;SDS011;38763;53.096;6.062;2023-07-20T09:02:45;4.70;;;1.80;;
52898;SDS011;38763;53.096;6.062;2023-07-20T09:05:12;6.05;;;1.45;;
52898;SDS011;38763;53.096;6.062;2023-07-20T09:07:41;5.65;;;1.65;;
52898;SDS011;38763;53.096;6.062;2023-07-20T09:10:06;4.45;;;1.52;;
52898;SDS011;38763;53.096;6.062;2023-07-20T09:12:38;5.93;;;1.67;;
52898;SDS011;38763;53.096;6.062;2023-07-20T09:15:05;5.40;;;1.58;;
52898;SDS011;38763;53.096;6.062;2023-07-20T09:17:32;5.18;;;1.50;;
52898;SDS011;38763;53.096;6.062;2023-07-20T09:19:58;3.95;;;1.48;;
52898;SDS011;38763;53.096;6.062;2023-07-20T09:22:30;5.53;;;1.70;;
52898;SDS011;38763;53.096;6.062;2023-07-20T09:24:57;4.28;;;1.50;;
52898;SDS011;38763;53.096;6.062;2023-07-20T09:27:39;5.88;;;1.70;;
52898;SDS011;38763;53.096;6.062;2023-07-20T09:30:05;4.03;;;1.45;;
52898;SDS011;38763;53.096;6.062;2023-07-20T09:32:54;4.72;;;1.40;;
52898;SDS011;38763;53.096;6.062;2023-07-20T09:35:20;2.63;;;1.30;;
52898;SDS011;38763;53.096;6.062;2023-07-20T09:37:50;3.08;;;1.20;;
52898;SDS011;38763;53.096;6.062;2023-07-20T09:40:19;8.02;;;1.40;;
52898;SDS011;38763;53.096;6.062;2023-07-20T09:42:46;4.60;;;1.40;;
52898;SDS011;38763;53.096;6.062;2023-07-20T09:45:12;3.88;;;1.30;;
52898;SDS011;38763;53.096;6.062;2023-07-20T09:47:38;4.43;;;1.35;;
52898;SDS011;38763;53.096;6.062;2023-07-20T09:50:05;4.07;;;1.40;;
52898;SDS011;38763;53.096;6.062;2023-07-20T09:52:37;4.63;;;1.20;;
52898;SDS011;38763;53.096;6.062;2023-07-20T09:55:05;2.67;;;1.15;;
52898;SDS011;38763;53.096;6.062;2023-07-20T09:57:34;4.30;;;1.40;;
52898;SDS011;38763;53.096;6.062;2023-07-20T10:00:02;3.38;;;1.25;;
52898;SDS011;38763;53.096;6.062;2023-07-20T10:02:33;6.13;;;1.40;;
52898;SDS011;38763;53.096;6.062;2023-07-20T10:05:05;5.63;;;1.40;;
52898;SDS011;38763;53.096;6.062;2023-07-20T10:07:35;3.97;;;1.40;;
52898;SDS011;38763;53.096;6.062;2023-07-20T10:10:05;4.38;;;1.50;;
52898;SDS011;38763;53.096;6.062;2023-07-20T10:12:33;4.70;;;1.30;;
52898;SDS011;38763;53.096;6.062;2023-07-20T10:15:04;2.58;;;1.20;;
52898;SDS011;38763;53.096;6.062;2023-07-20T10:17:53;4.75;;;1.20;;
52898;SDS011;38763;53.096;6.062;2023-07-20T10:20:54;5.10;;;1.42;;
52898;SDS011;38763;53.096;6.062;2023-07-20T10:23:21;5.57;;;1.50;;
52898;SDS011;38763;53.096;6.062;2023-07-20T10:25:48;5.00;;;1.48;;
52898;SDS011;38763;53.096;6.062;2023-07-20T10:28:14;3.78;;;1.48;;
52898;SDS011;38763;53.096;6.062;2023-07-20T10:30:40;4.78;;;1.38;;
52898;SDS011;38763;53.096;6.062;2023-07-20T10:33:07;2.90;;;1.20;;
52898;SDS011;38763;53.096;6.062;2023-07-20T10:38:19;4.03;;;1.30;;
52898;SDS011;38763;53.096;6.062;2023-07-20T10:41:02;5.28;;;1.30;;
52898;SDS011;38763;53.096;6.062;2023-07-20T10:43:28;5.13;;;1.02;;
52898;SDS011;38763;53.096;6.062;2023-07-20T10:45:55;2.58;;;1.10;;
52898;SDS011;38763;53.096;6.062;2023-07-20T10:48:24;4.47;;;1.30;;
52898;SDS011;38763;53.096;6.062;2023-07-20T10:53:35;4.20;;;1.48;;
52898;SDS011;38763;53.096;6.062;2023-07-20T10:56:08;3.72;;;1.50;;
52898;SDS011;38763;53.096;6.062;2023-07-20T10:58:36;4.30;;;1.50;;
52898;SDS011;38763;53.096;6.062;2023-07-20T11:01:03;5.82;;;1.50;;
52898;SDS011;38763;53.096;6.062;2023-07-20T11:03:31;6.88;;;1.80;;
52898;SDS011;38763;53.096;6.062;2023-07-20T11:09:11;7.32;;;1.80;;
52898;SDS011;38763;53.096;6.062;2023-07-20T11:11:40;6.43;;;1.60;;
52898;SDS011;38763;53.096;6.062;2023-07-20T11:16:50;3.75;;;1.50;;
52898;SDS011;38763;53.096;6.062;2023-07-20T11:19:17;4.32;;;1.40;;
52898;SDS011;38763;53.096;6.062;2023-07-20T11:24:19;6.15;;;1.85;;
52898;SDS011;38763;53.096;6.062;2023-07-20T11:26:46;5.28;;;1.80;;
52898;SDS011;38763;53.096;6.062;2023-07-20T11:29:13;4.13;;;1.48;;
52898;SDS011;38763;53.096;6.062;2023-07-20T11:31:41;3.28;;;1.40;;
52898;SDS011;38763;53.096;6.062;2023-07-20T11:34:10;5.10;;;1.50;;
52898;SDS011;38763;53.096;6.062;2023-07-20T11:36:40;4.35;;;1.85;;
52898;SDS011;38763;53.096;6.062;2023-07-20T11:39:07;3.78;;;1.38;;
52898;SDS011;38763;53.096;6.062;2023-07-20T11:41:34;4.13;;;1.40;;
52898;SDS011;38763;53.096;6.062;2023-07-20T11:44:00;6.28;;;1.30;;
52898;SDS011;38763;53.096;6.062;2023-07-20T11:46:27;2.83;;;1.23;;
52898;SDS011;38763;53.096;6.062;2023-07-20T11:49:00;6.15;;;1.55;;
52898;SDS011;38763;53.096;6.062;2023-07-20T11:51:29;4.73;;;1.90;;
52898;SDS011;38763;53.096;6.062;2023-07-20T11:53:56;3.33;;;1.73;;
52898;SDS011;38763;53.096;6.062;2023-07-20T11:56:22;6.32;;;1.73;;
52898;SDS011;38763;53.096;6.062;2023-07-20T11:58:49;4.10;;;1.38;;
52898;SDS011;38763;53.096;6.062;2023-07-20T12:01:14;2.67;;;1.30;;
52898;SDS011;38763;53.096;6.062;2023-07-20T12:03:43;4.00;;;1.38;;
52898;SDS011;38763;53.096;6.062;2023-07-20T12:06:09;5.20;;;1.45;;
52898;SDS011;38763;53.096;6.062;2023-07-20T12:08:39;3.65;;;1.50;;
52898;SDS011;38763;53.096;6.062;2023-07-20T12:11:06;6.20;;;1.63;;
52898;SDS011;38763;53.096;6.062;2023-07-20T12:13:41;2.78;;;1.40;;
52898;SDS011;38763;53.096;6.062;2023-07-20T12:16:12;3.80;;;1.70;;
52898;SDS011;38763;53.096;6.062;2023-07-20T12:18:39;7.40;;;1.80;;
52898;SDS011;38763;53.096;6.062;2023-07-20T12:21:05;5.85;;;1.60;;
52898;SDS011;38763;53.096;6.062;2023-07-20T12:23:37;6.38;;;1.58;;
52898;SDS011;38763;53.096;6.062;2023-07-20T12:26:05;4.40;;;1.52;;
52898;SDS011;38763;53.096;6.062;2023-07-20T12:28:32;3.03;;;1.52;;
52898;SDS011;38763;53.096;6.062;2023-07-20T12:30:58;2.90;;;1.42;;
52898;SDS011;38763;53.096;6.062;2023-07-20T12:33:24;5.63;;;1.60;;
52898;SDS011;38763;53.096;6.062;2023-07-20T12:35:49;3.95;;;1.67;;
52898;SDS011;38763;53.096;6.062;2023-07-20T12:38:16;4.45;;;1.48;;
52898;SDS011;38763;53.096;6.062;2023-07-20T12:40:42;4.47;;;1.60;;
52898;SDS011;38763;53.096;6.062;2023-07-20T12:43:07;8.68;;;1.55;;
52898;SDS011;38763;53.096;6.062;2023-07-20T12:45:33;4.22;;;1.60;;
52898;SDS011;38763;53.096;6.062;2023-07-20T12:47:59;3.92;;;1.42;;
52898;SDS011;38763;53.096;6.062;2023-07-20T12:50:25;3.88;;;1.40;;
52898;SDS011;38763;53.096;6.062;2023-07-20T12:52:51;4.72;;;1.45;;
52898;SDS011;38763;53.096;6.062;2023-07-20T12:55:17;3.92;;;1.40;;
52898;SDS011;38763;53.096;6.062;2023-07-20T12:57:43;4.18;;;1.58;;
52898;SDS011;38763;53.096;6.062;2023-07-20T13:00:09;4.22;;;1.25;;
52898;SDS011;38763;53.096;6.062;2023-07-20T13:02:37;6.63;;;1.65;;
52898;SDS011;38763;53.096;6.062;2023-07-20T13:05:03;5.57;;;1.42;;
52898;SDS011;38763;53.096;6.062;2023-07-20T13:07:32;3.90;;;1.30;;
52898;SDS011;38763;53.096;6.062;2023-07-20T13:09:59;6.95;;;1.35;;
52898;SDS011;38763;53.096;6.062;2023-07-20T13:12:29;5.57;;;1.38;;
52898;SDS011;38763;53.096;6.062;2023-07-20T13:14:56;6.80;;;1.50;;
52898;SDS011;38763;53.096;6.062;2023-07-20T13:17:25;3.42;;;1.30;;
52898;SDS011;38763;53.096;6.062;2023-07-20T13:19:52;3.20;;;1.08;;
52898;SDS011;38763;53.096;6.062;2023-07-20T13:22:18;5.38;;;1.50;;
52898;SDS011;38763;53.096;6.062;2023-07-20T13:24:46;6.47;;;1.42;;
52898;SDS011;38763;53.096;6.062;2023-07-20T13:27:18;2.80;;;1.27;;
52898;SDS011;38763;53.096;6.062;2023-07-20T13:29:44;2.88;;;1.40;;
52898;SDS011;38763;53.096;6.062;2023-07-20T13:32:13;2.92;;;1.10;;
52898;SDS011;38763;53.096;6.062;2023-07-20T13:34:45;2.00;;;1.00;;
52898;SDS011;38763;53.096;6.062;2023-07-20T13:37:11;4.03;;;1.40;;
52898;SDS011;38763;53.096;6.062;2023-07-20T13:39:37;5.25;;;1.30;;
52898;SDS011;38763;53.096;6.062;2023-07-20T13:42:03;4.78;;;1.20;;
52898;SDS011;38763;53.096;6.062;2023-07-20T13:44:33;3.95;;;1.38;;
52898;SDS011;38763;53.096;6.062;2023-07-20T13:46:59;4.30;;;1.27;;
52898;SDS011;38763;53.096;6.062;2023-07-20T13:49:25;3.00;;;1.10;;
52898;SDS011;38763;53.096;6.062;2023-07-20T13:51:51;2.70;;;1.20;;
52898;SDS011;38763;53.096;6.062;2023-07-20T13:54:17;3.60;;;1.42;;
52898;SDS011;38763;53.096;6.062;2023-07-20T13:56:42;2.42;;;1.25;;
52898;SDS011;38763;53.096;6.062;2023-07-20T13:59:08;3.85;;;1.20;;
52898;SDS011;38763;53.096;6.062;2023-07-20T14:01:34;4.05;;;1.10;;
52898;SDS011;38763;53.096;6.062;2023-07-20T14:04:00;3.80;;;1.10;;
52898;SDS011;38763;53.096;6.062;2023-07-20T14:06:29;2.15;;;1.00;;
52898;SDS011;38763;53.096;6.062;2023-07-20T14:08:55;3.78;;;1.25;;
52898;SDS011;38763;53.096;6.062;2023-07-20T14:11:22;3.67;;;1.30;;
52898;SDS011;38763;53.096;6.062;2023-07-20T14:13:48;2.70;;;1.10;;
52898;SDS011;38763;53.096;6.062;2023-07-20T14:16:21;3.22;;;1.40;;
52898;SDS011;38763;53.096;6.062;2023-07-20T14:18:47;2.72;;;1.30;;
52898;SDS011;38763;53.096;6.062;2023-07-20T14:21:13;2.53;;;1.05;;
52898;SDS011;38763;53.096;6.062;2023-07-20T14:23:40;3.30;;;1.02;;
52898;SDS011;38763;53.096;6.062;2023-07-20T14:26:05;3.53;;;1.20;;
52898;SDS011;38763;53.096;6.062;2023-07-20T14:28:32;2.78;;;1.13;;
52898;SDS011;38763;53.096;6.062;2023-07-20T14:30:58;6.47;;;1.20;;
52898;SDS011;38763;53.096;6.062;2023-07-20T14:33:24;2.95;;;1.20;;
52898;SDS011;38763;53.096;6.062;2023-07-20T14:35:49;2.00;;;1.00;;
52898;SDS011;38763;53.096;6.062;2023-07-20T14:38:15;1.90;;;1.10;;
52898;SDS011;38763;53.096;6.062;2023-07-20T14:40:40;2.47;;;1.10;;
52898;SDS011;38763;53.096;6.062;2023-07-20T14:43:06;3.63;;;1.20;;
52898;SDS011;38763;53.096;6.062;2023-07-20T14:45:32;2.88;;;1.15;;
52898;SDS011;38763;53.096;6.062;2023-07-20T14:47:58;2.83;;;1.23;;
52898;SDS011;38763;53.096;6.062;2023-07-20T14:50:24;3.67;;;1.20;;
52898;SDS011;38763;53.096;6.062;2023-07-20T14:52:49;1.95;;;0.93;;
52898;SDS011;38763;53.096;6.062;2023-07-20T14:55:16;2.75;;;1.13;;
52898;SDS011;38763;53.096;6.062;2023-07-20T14:57:42;2.47;;;1.10;;
52898;SDS011;38763;53.096;6.062;2023-07-20T15:00:08;2.00;;;1.00;;
52898;SDS011;38763;53.096;6.062;2023-07-20T15:02:35;3.25;;;1.13;;
52898;SDS011;38763;53.096;6.062;2023-07-20T15:05:02;12.40;;;1.42;;
52898;SDS011;38763;53.096;6.062;2023-07-20T15:07:28;2.65;;;1.10;;
52898;SDS011;38763;53.096;6.062;2023-07-20T15:09:54;2.65;;;1.20;;